Pemberville, OH

8:43 AM EDT on May 30, 2015 (GMT -0400)
OHDOT | | Change Station
CLOSE
Current Station
Personal Weather Station
Location: Bradner, OH
Elevation: 684 ft
Nearby Weather Stations

Elev 684 ft 41.34 °N, 83.42 °W | Updated 23 minutes ago

Partly Cloudy
Partly Cloudy
74 °F
Feels Like 72 °F
N
6
Wind Variable Wind from South
Gusts 11.0 mph

Today
High -- | Low -- °F
--% Chance of Precip.
Yesterday
High -- | Low -- °F
Precip. -- in
6:03 AM 8:59 PM
Waxing Gibbous, 90% visible
Pressure 30.01 in
Visibility 10.0 miles
Clouds Few 4700 ft
Scattered Clouds 7000 ft
Heat Index 72 °F
Dew Point 71 °F
Humidity 92%
Rainfall in
Snow Depth Not available.
UV 1 out of 12
Pollen 2.00 out of 12
Air Quality Not available.
Flu Activity Sporadic
METAR KTDZ 301153Z AUTO 21009KT 10SM FEW047 SCT070 22/18 A3002 RMK AO2 SLP161 70018 T02220183 10228 20211 51007 TSNO

More Conditions Fewer Conditions

Pressure 30.01 in
Visibility 10.0 miles
Clouds Few 4700 ft
Scattered Clouds 7000 ft
Heat Index 72 °F
Dew Point 71 °F
Humidity 92%
Rainfall in
Snow Depth Not available.
UV 1 out of 12
Pollen 2.00 out of 12
Air Quality Not available.
Flu Activity Sporadic
METAR KTDZ 301153Z AUTO 21009KT 10SM FEW047 SCT070 22/18 A3002 RMK AO2 SLP161 70018 T02220183 10228 20211 51007 TSNO

More Conditions Fewer Conditions

10-Day Weather Forecast

Almanac

Astronomy

May. 30, 2015 Rise Set
Actual Time
Civil Twilight
Nautical Twilight
Astronomical Twilight
Moon
Length of Visible Light
Length of Day
Tomorrow will be .
, % of the Moon is Illuminated

Today's Extremes

State Highs State Lows

Community

WunderPhotos

Upload Photos

1,825,498 photos uploaded!

WunderBlogs® & News

Nearby

Air Quality

  Air Quality AQ Index Pollutant
Not available.

Snow Depth

Station Depth Elevation

Earthquake Activity

City Distance Mag. Time & Date
Minimum magnitude displayed is 2.5.

Coastal Water Temperatures

Place Temperature

Stations

Nearby Weather Stations

Station Location Temp. Windchill Dew Point Humidity Wind Precip. Elev Updated Type